Time;durP1;ratioP1;P1;durP2;ratioP2;P2;SDS_P1;SDS_P2;PMS_P1;PMS_P2;Temp;Humidity;BMP_temperature;BMP_pressure;BME280_temperature;BME280_humidity;BME280_pressure;Samples;Min_cycle;Max_cycle;Signal;HPM_P1;HPM_P2
2022/07/31 00:02:53;;;;;;;1.83;1.50;;;;;;;21.19;56.90;96995.03;10323554;28;20034;-26
2022/07/31 00:07:54;;;;;;;2.55;1.70;;;;;;;21.18;56.97;96995.03;10320011;28;20081;-26
2022/07/31 00:12:54;;;;;;;2.10;1.50;;;;;;;21.04;57.16;96972.22;10325157;28;20037;-26
2022/07/31 00:17:55;;;;;;;1.73;1.60;;;;;;;21.16;57.27;96984.88;10319705;28;20294;-27
2022/07/31 00:22:56;;;;;;;2.87;1.53;;;;;;;21.20;55.99;96978.91;10323397;28;20070;-27
2022/07/31 00:27:56;;;;;;;2.33;1.55;;;;;;;21.43;53.51;96986.38;10324612;28;20288;-26
2022/07/31 00:32:57;;;;;;;2.42;1.60;;;;;;;21.45;55.35;96980.41;10323814;28;20036;-27
2022/07/31 00:37:57;;;;;;;1.77;1.30;;;;;;;21.33;55.72;96980.53;10318508;28;20030;-25
2022/07/31 00:42:57;;;;;;;3.20;1.40;;;;;;;21.26;56.06;96983.97;10322906;28;20105;-27
2022/07/31 00:47:58;;;;;;;1.60;1.40;;;;;;;21.21;56.64;96985.69;10321449;28;20068;-26
2022/07/31 00:52:59;;;;;;;3.10;1.30;;;;;;;21.20;56.88;96978.91;10322197;28;20033;-26
2022/07/31 00:57:59;;;;;;;4.60;1.33;;;;;;;21.18;56.88;96977.22;10326505;28;20042;-26
2022/07/31 01:03:00;;;;;;;1.93;1.40;;;;;;;21.18;56.77;96975.53;10327334;28;20026;-27
2022/07/31 01:08:00;;;;;;;1.35;1.25;;;;;;;21.18;56.97;96970.44;10326187;28;20395;-27
2022/07/31 01:13:07;;;;;;;2.20;2.00;;;;;;;21.22;55.39;96969.53;10331732;28;20118;-27
2022/07/31 01:18:10;;;;;;;5.13;2.15;;;;;;;21.44;52.82;96963.44;10328706;28;20030;-26
2022/07/31 01:23:39;;;;;;;1.48;1.38;;;;;;;21.47;54.25;96965.97;10326625;28;20546;-27
2022/07/31 01:29:17;;;;;;;1.25;1.15;;;;;;;21.31;55.33;96969.47;10326745;28;20028;-26
2022/07/31 01:34:30;;;;;;;2.05;1.40;;;;;;;21.25;55.86;96972.09;10327054;28;20030;-26
2022/07/31 01:39:35;;;;;;;1.50;1.40;;;;;;;21.21;56.14;96975.50;10328338;28;20030;-26
2022/07/31 01:44:43;;;;;;;1.45;1.35;;;;;;;21.20;56.54;96967.84;10332634;28;20045;-26
2022/07/31 01:49:47;;;;;;;1.75;1.17;;;;;;;21.19;56.53;96966.19;10328327;28;20413;-26
2022/07/31 01:54:50;;;;;;;1.70;1.20;;;;;;;21.15;56.35;96970.44;10328586;28;20027;-26
2022/07/31 01:59:54;;;;;;;2.58;1.40;;;;;;;21.16;56.80;96972.16;10327636;28;20039;-27
2022/07/31 02:05:15;;;;;;;1.77;0.95;;;;;;;21.33;52.50;96972.88;10327871;28;20042;-26
2022/07/31 02:10:19;;;;;;;1.40;1.30;;;;;;;21.48;51.96;96977.00;10325467;28;20066;-26
2022/07/31 02:15:20;;;;;;;1.55;1.20;;;;;;;21.41;55.26;96978.75;10322761;28;20034;-26
2022/07/31 02:20:22;;;;;;;2.38;1.33;;;;;;;21.29;54.83;96981.38;10324388;28;20044;-26
2022/07/31 02:25:25;;;;;;;1.50;1.20;;;;;;;21.24;55.35;96979.72;10324575;28;20491;-27
2022/07/31 02:30:29;;;;;;;1.30;1.20;;;;;;;21.21;56.11;96980.59;10325489;28;20120;-26
2022/07/31 02:35:30;;;;;;;2.10;1.30;;;;;;;21.19;56.44;96982.31;10322780;28;20058;-27
2022/07/31 02:40:32;;;;;;;1.77;1.40;;;;;;;21.15;56.63;96964.50;10326523;28;20138;-26
2022/07/31 02:45:33;;;;;;;3.30;1.30;;;;;;;21.12;56.25;96955.19;10322288;28;20485;-26
2022/07/31 02:50:33;;;;;;;2.78;1.50;;;;;;;21.18;56.36;96965.34;10324979;28;20081;-26
2022/07/31 02:55:34;;;;;;;1.63;1.23;;;;;;;21.33;52.15;96965.25;10325894;28;20034;-27
2022/07/31 03:00:35;;;;;;;1.95;1.50;;;;;;;21.46;51.45;96977.00;10324794;28;20036;-27
2022/07/31 03:05:36;;;;;;;1.45;1.35;;;;;;;21.42;54.03;96972.81;10321790;28;20038;-26
2022/07/31 03:10:36;;;;;;;1.10;1.00;;;;;;;21.28;54.43;96969.50;10325927;28;20034;-26
2022/07/31 03:15:39;;;;;;;1.33;1.23;;;;;;;21.23;55.06;96966.13;10326476;28;20125;-27
2022/07/31 03:20:41;;;;;;;1.75;1.20;;;;;;;21.21;55.83;96959.41;10320295;28;20031;-26
2022/07/31 03:25:42;;;;;;;2.55;1.40;;;;;;;21.19;55.85;96961.94;10324831;28;20473;-26
2022/07/31 03:30:43;;;;;;;1.60;1.27;;;;;;;21.13;56.04;96954.34;10325331;28;20121;-26
2022/07/31 03:35:43;;;;;;;1.83;1.20;;;;;;;21.16;56.18;96961.97;10320543;28;20026;-27
2022/07/31 03:40:45;;;;;;;1.30;1.02;;;;;;;21.18;56.54;96954.31;10326313;28;20030;-26
2022/07/31 03:45:47;;;;;;;3.92;1.30;;;;;;;21.33;51.76;96959.28;10321916;28;20038;-27
2022/07/31 03:50:48;;;;;;;2.33;1.33;;;;;;;21.41;51.51;96953.25;10321667;28;20038;-26
2022/07/31 03:55:49;;;;;;;1.35;1.10;;;;;;;21.40;52.52;96951.59;10324647;28;20037;-26
2022/07/31 04:00:51;;;;;;;1.60;1.50;;;;;;;21.32;53.88;96949.97;10324582;28;20034;-26
2022/07/31 04:05:52;;;;;;;1.40;1.30;;;;;;;21.24;54.68;96961.91;10321191;28;20053;-26
2022/07/31 04:10:53;;;;;;;1.95;1.60;;;;;;;21.21;55.47;96959.41;10323442;28;20044;-26
2022/07/31 04:15:58;;;;;;;0.88;0.88;;;;;;;21.18;56.42;96960.25;10322659;28;20073;-27
2022/07/31 04:20:58;;;;;;;1.33;1.07;;;;;;;21.18;55.95;96965.34;10318845;28;20049;-25
2022/07/31 04:25:59;;;;;;;1.10;1.00;;;;;;;21.15;56.60;96965.34;10323035;28;20040;-26
2022/07/31 04:31:08;;;;;;;1.20;1.10;;;;;;;21.15;56.82;96974.69;10321398;28;20068;-27
2022/07/31 04:36:12;;;;;;;1.77;1.33;;;;;;;21.30;51.90;96964.41;10318017;28;20038;-26
2022/07/31 04:41:12;;;;;;;1.80;1.38;;;;;;;21.40;51.30;96971.97;10323536;28;20460;-26
2022/07/31 04:46:13;;;;;;;4.85;1.10;;;;;;;21.41;51.08;96970.28;10329707;28;20038;-26
2022/07/31 04:51:18;;;;;;;3.27;1.10;;;;;;;21.30;54.06;96969.50;10321577;28;20030;-26
2022/07/31 05:01:58;;;;;;;1.27;1.10;;;;;;;21.22;54.73;96966.19;10243772;28;20650;-26
2022/07/31 05:06:59;;;;;;;1.63;1.10;;;;;;;21.20;55.00;96960.22;10285649;28;20065;-27
2022/07/31 05:12:00;;;;;;;1.58;1.02;;;;;;;21.04;55.82;96934.03;10320475;28;20113;-27
2022/07/31 05:17:01;;;;;;;2.17;1.10;;;;;;;21.16;55.84;96951.78;10316402;28;20034;-27
2022/07/31 05:22:15;;;;;;;8.88;1.40;;;;;;;21.19;55.11;96961.06;10315992;28;20113;-26
2022/07/31 05:27:36;;;;;;;2.88;1.10;;;;;;;21.35;51.63;96958.44;10321966;28;20046;-27
2022/07/31 05:32:36;;;;;;;3.07;1.10;;;;;;;21.43;51.24;96954.13;10322434;28;20034;-27
2022/07/31 05:37:37;;;;;;;2.35;1.10;;;;;;;21.36;54.76;96955.03;10316799;28;20039;-27
2022/07/31 05:42:41;;;;;;;2.33;1.00;;;;;;;21.28;54.45;96950.81;10321609;28;20084;-26
2022/07/31 05:47:50;;;;;;;1.17;1.00;;;;;;;21.24;54.40;96949.16;10321568;28;20050;-26
2022/07/31 05:52:50;;;;;;;1.87;1.10;;;;;;;21.20;55.26;96956.00;10325535;28;20408;-27
2022/07/31 05:58:09;;;;;;;1.98;1.10;;;;;;;21.20;55.68;96950.03;10329126;28;20064;-27
2022/07/31 06:03:11;;;;;;;1.20;1.10;;;;;;;21.19;55.55;96956.00;10327690;28;20041;-27
2022/07/31 06:08:27;;;;;;;2.22;1.30;;;;;;;21.19;56.06;96950.91;10326369;28;20097;-26
2022/07/31 06:13:29;;;;;;;1.48;1.00;;;;;;;21.21;55.59;96951.75;10348418;28;20096;-25
2022/07/31 06:18:34;;;;;;;2.23;1.23;;;;;;;21.31;52.48;96941.47;10328937;28;20489;-26
2022/07/31 06:23:35;;;;;;;3.03;1.50;;;;;;;21.45;51.76;96944.75;10327092;28;20049;-26
2022/07/31 06:28:58;;;;;;;1.55;1.00;;;;;;;21.45;52.14;96939.66;10323231;28;20026;-26
2022/07/31 06:33:59;;;;;;;6.47;1.30;;;;;;;21.43;51.75;96938.84;10328848;28;20408;-26
2022/07/31 06:39:07;;;;;;;1.83;1.30;;;;;;;21.36;52.58;96944.84;10326140;28;20092;-27
2022/07/31 06:44:07;;;;;;;1.27;1.10;;;;;;;21.28;53.23;96951.69;10326027;28;20038;-25
2022/07/31 06:49:26;;;;;;;2.88;1.73;;;;;;;21.35;52.90;96950.78;10330100;28;20128;-26
2022/07/31 06:54:27;;;;;;;2.93;1.30;;;;;;;21.32;54.79;96938.06;10328155;28;20031;-25
2022/07/31 06:59:28;;;;;;;3.17;1.60;;;;;;;21.27;54.51;96950.00;10330144;28;20320;-26
2022/07/31 07:04:29;;;;;;;8.57;1.35;;;;;;;21.28;55.38;96955.91;10330694;28;20647;-26
2022/07/31 07:09:29;;;;;;;2.13;1.48;;;;;;;21.43;53.27;96959.22;10321602;28;20033;-26
2022/07/31 07:14:30;;;;;;;1.70;1.25;;;;;;;21.54;53.02;96959.09;10322837;28;20034;-26
2022/07/31 07:19:31;;;;;;;1.27;1.17;;;;;;;21.40;54.34;96951.59;10324117;28;20034;-27
2022/07/31 07:24:32;;;;;;;4.15;1.02;;;;;;;21.29;54.95;96948.28;10324381;28;20108;-25
2022/07/31 07:29:43;;;;;;;3.90;1.45;;;;;;;21.24;55.88;96952.53;10325361;28;20034;-26
2022/07/31 07:34:43;;;;;;;1.65;1.00;;;;;;;21.21;56.38;96944.13;10324733;28;20632;-26
2022/07/31 07:39:55;;;;;;;1.02;0.90;;;;;;;21.18;56.39;96937.34;10323905;28;20030;-27
2022/07/31 07:44:56;;;;;;;2.17;1.25;;;;;;;21.17;56.88;96933.09;10323408;28;20084;-27
2022/07/31 07:49:56;;;;;;;1.58;0.90;;;;;;;21.16;56.99;96931.41;10319875;28;20022;-26
2022/07/31 07:55:25;;;;;;;1.23;1.13;;;;;;;21.17;56.80;96930.56;10317059;28;20080;-26
2022/07/31 08:01:03;;;;;;;5.25;1.17;;;;;;;21.39;56.05;96926.13;10310767;28;20038;-25
2022/07/31 08:06:03;;;;;;;2.03;1.00;;;;;;;21.45;55.50;96919.28;10320207;28;20026;-26
2022/07/31 08:11:04;;;;;;;0.87;0.87;;;;;;;21.35;55.84;96932.09;10324636;28;20281;-26
2022/07/31 08:16:15;;;;;;;2.47;1.10;;;;;;;21.28;56.12;96930.44;10318158;28;20302;-26
2022/07/31 08:21:18;;;;;;;3.90;1.40;;;;;;;21.24;56.65;96934.72;10319313;28;20472;-26
2022/07/31 08:26:20;;;;;;;3.47;1.00;;;;;;;21.23;56.47;96933.03;10323533;28;20030;-26
2022/07/31 08:31:21;;;;;;;2.72;0.90;;;;;;;21.14;56.92;96912.72;10337908;28;20061;-26
2022/07/31 08:36:37;;;;;;;1.10;1.00;;;;;;;21.16;56.74;96921.22;10311549;28;20043;-26
2022/07/31 08:41:39;;;;;;;1.45;1.00;;;;;;;21.18;56.99;96924.59;10323250;28;20407;-26
2022/07/31 08:46:40;;;;;;;3.70;1.45;;;;;;;21.21;56.66;96929.66;10321418;28;20031;-26
2022/07/31 08:51:42;;;;;;;1.75;1.30;;;;;;;21.39;54.88;96924.41;10320740;28;20034;-26
2022/07/31 08:57:02;;;;;;;0.82;0.82;;;;;;;21.51;55.45;96924.34;10320604;28;20050;-26
2022/07/31 09:02:03;;;;;;;3.20;1.05;;;;;;;21.38;56.48;96922.72;10322223;28;20038;-26
2022/07/31 09:07:13;;;;;;;2.08;1.48;;;;;;;21.31;55.89;96931.28;10318316;28;20468;-26
2022/07/31 09:12:13;;;;;;;3.45;0.90;;;;;;;21.24;56.38;96924.53;10320235;28;20030;-26
2022/07/31 09:17:34;;;;;;;4.18;1.48;;;;;;;21.26;56.37;96930.50;10320736;28;20417;-27
2022/07/31 09:22:35;;;;;;;2.97;1.42;;;;;;;21.26;56.44;96932.16;10336223;28;20496;-26
2022/07/31 09:27:38;;;;;;;4.35;1.65;;;;;;;21.23;56.61;96938.13;10329209;28;20117;-27
2022/07/31 09:32:39;;;;;;;2.60;1.30;;;;;;;21.20;56.85;96935.63;10328837;28;20452;-26
2022/07/31 09:37:47;;;;;;;3.65;1.30;;;;;;;21.21;56.78;96944.94;10324653;28;20049;-26
2022/07/31 09:43:23;;;;;;;3.60;1.67;;;;;;;21.43;54.33;96930.34;10324225;28;20047;-26
2022/07/31 09:48:24;;;;;;;1.40;1.30;;;;;;;21.51;54.57;96926.03;10327540;28;20108;-26
2022/07/31 09:53:25;;;;;;;0.98;0.98;;;;;;;21.40;55.74;96920.19;10328345;28;20117;-26
2022/07/31 09:58:34;;;;;;;1.15;1.05;;;;;;;21.32;55.79;96927.88;10328389;28;20034;-26
2022/07/31 10:03:39;;;;;;;2.20;1.98;;;;;;;21.25;56.52;96912.66;10328526;28;20038;-26
2022/07/31 10:08:41;;;;;;;3.08;1.30;;;;;;;21.15;56.46;96894.06;10328191;28;20030;-26
2022/07/31 10:14:13;;;;;;;4.63;1.17;;;;;;;21.16;56.80;96911.03;10323766;28;20113;-26
2022/07/31 10:19:15;;;;;;;1.52;1.02;;;;;;;21.21;56.89;96919.47;10328538;28;20027;-26
2022/07/31 10:24:46;;;;;;;1.65;1.30;;;;;;;21.20;56.87;96916.94;10327123;28;20042;-27
2022/07/31 10:29:48;;;;;;;2.08;1.05;;;;;;;21.20;56.16;96917.78;10324294;28;20074;-26
2022/07/31 10:34:48;;;;;;;2.28;1.17;;;;;;;21.43;54.69;96910.81;10322280;28;20509;-26
2022/07/31 10:40:25;;;;;;;0.80;0.80;;;;;;;21.51;55.61;96905.66;10322671;28;20082;-26
2022/07/31 10:45:30;;;;;;;1.08;1.02;;;;;;;21.38;55.78;96892.16;10321825;28;20129;-27
2022/07/31 10:50:37;;;;;;;2.05;0.98;;;;;;;21.31;55.82;96884.59;10320441;28;20497;-27
2022/07/31 10:55:41;;;;;;;1.35;1.00;;;;;;;21.27;56.49;96899.06;10322959;28;20170;-26
2022/07/31 11:00:51;;;;;;;3.15;1.35;;;;;;;21.25;56.66;96880.41;10322052;28;20551;-26
2022/07/31 11:06:12;;;;;;;1.70;1.60;;;;;;;21.23;56.76;96877.00;10321221;28;20042;-26
2022/07/31 11:11:39;;;;;;;1.67;1.33;;;;;;;21.21;56.87;96868.53;10301181;28;20117;-26
2022/07/31 11:16:58;;;;;;;1.38;1.27;;;;;;;21.23;56.91;96861.72;10314692;28;20042;-27
2022/07/31 11:22:16;;;;;;;1.80;1.17;;;;;;;21.26;55.94;96855.78;10320207;28;20046;-27
2022/07/31 11:27:16;;;;;;;2.85;1.30;;;;;;;21.47;54.40;96860.69;10323804;28;20612;-27
2022/07/31 11:32:17;;;;;;;2.03;0.83;;;;;;;21.53;55.56;96858.91;10321906;28;20048;-27
2022/07/31 11:37:21;;;;;;;1.53;0.93;;;;;;;21.41;55.51;96846.28;10321834;28;20034;-27
2022/07/31 11:42:23;;;;;;;2.17;1.10;;;;;;;21.32;55.89;96856.56;10323914;28;20041;-26
2022/07/31 11:47:24;;;;;;;2.15;1.20;;;;;;;21.28;56.59;96842.19;10317190;28;20048;-27
2022/07/31 11:52:24;;;;;;;1.50;1.20;;;;;;;21.26;56.83;96841.34;10323518;28;20038;-26
2022/07/31 11:57:31;;;;;;;1.67;1.17;;;;;;;21.14;56.91;96821.06;10323981;28;20037;-27
2022/07/31 12:02:31;;;;;;;3.53;1.40;;;;;;;21.23;56.81;96830.34;10325913;28;20068;-27
2022/07/31 12:07:33;;;;;;;5.10;1.40;;;;;;;21.25;56.30;96833.72;10320914;28;20138;-27
2022/07/31 12:12:35;;;;;;;3.13;1.40;;;;;;;21.25;56.01;96834.56;10319880;28;20038;-27
2022/07/31 12:17:36;;;;;;;1.75;1.27;;;;;;;21.46;54.04;96828.44;10322747;28;20480;-27
2022/07/31 12:22:36;;;;;;;1.50;1.20;;;;;;;21.58;53.54;96824.06;10322730;28;20053;-26
2022/07/31 12:27:37;;;;;;;0.83;0.80;;;;;;;21.48;55.90;96827.53;10324684;28;20057;-27
2022/07/31 12:32:37;;;;;;;1.42;1.00;;;;;;;21.39;55.67;96817.44;10319432;28;20121;-27
2022/07/31 12:37:46;;;;;;;2.57;1.40;;;;;;;21.33;56.11;96807.34;10317962;28;20622;-27
2022/07/31 12:42:46;;;;;;;1.60;1.23;;;;;;;21.25;56.18;96806.56;10325163;28;20034;-26
2022/07/31 12:47:52;;;;;;;3.88;1.42;;;;;;;21.23;56.63;96795.53;10321056;28;20081;-26
2022/07/31 12:52:53;;;;;;;1.10;1.00;;;;;;;21.27;56.35;96796.34;10323677;28;20038;-26
2022/07/31 12:57:54;;;;;;;4.65;1.42;;;;;;;21.25;56.79;96788.75;10331972;28;20113;-26
2022/07/31 13:02:56;;;;;;;3.22;1.17;;;;;;;21.27;56.23;96783.59;10330856;28;20105;-25
2022/07/31 13:07:56;;;;;;;1.50;1.08;;;;;;;21.44;54.61;96785.13;10329728;28;20034;-26
2022/07/31 13:12:57;;;;;;;2.57;1.33;;;;;;;21.58;54.13;96773.09;10332055;28;20057;-26
2022/07/31 13:18:00;;;;;;;2.00;1.27;;;;;;;21.53;55.50;96772.28;10329991;28;20026;-26
2022/07/31 13:23:01;;;;;;;1.65;1.23;;;;;;;21.43;55.58;96769.84;10329084;28;20045;-28
2022/07/31 13:28:02;;;;;;;7.45;1.73;;;;;;;21.33;56.20;96763.19;10331780;28;20042;-26
2022/07/31 13:33:02;;;;;;;4.53;1.60;;;;;;;21.30;56.44;96745.41;10330551;28;20044;-26
2022/07/31 13:38:02;;;;;;;3.10;1.10;;;;;;;21.31;56.70;96758.09;10326017;28;20081;-27
2022/07/31 13:43:03;;;;;;;7.50;2.07;;;;;;;21.34;56.57;96742.78;10330926;28;20029;-27
2022/07/31 13:48:04;;;;;;;3.83;1.40;;;;;;;21.34;56.63;96745.34;10328622;28;20339;-27
2022/07/31 13:53:05;;;;;;;4.78;2.08;;;;;;;21.32;56.74;96746.22;10328692;28;20050;-26
2022/07/31 13:58:06;;;;;;;4.10;1.50;;;;;;;21.45;55.80;96745.19;10329509;28;20393;-26
2022/07/31 14:03:06;;;;;;;7.13;1.63;;;;;;;21.61;55.42;96733.97;10323006;28;20590;-27
2022/07/31 14:08:07;;;;;;;2.63;1.00;;;;;;;21.62;55.99;96717.81;10320786;28;20057;-27
2022/07/31 14:13:07;;;;;;;10.83;1.90;;;;;;;21.48;56.20;96730.72;10321296;28;20125;-28
2022/07/31 14:18:07;;;;;;;6.35;1.50;;;;;;;21.45;56.36;96712.09;10323646;28;20089;-26
2022/07/31 14:23:08;;;;;;;2.80;1.55;;;;;;;21.40;56.56;96719.78;10321353;28;20571;-27
2022/07/31 14:28:09;;;;;;;2.75;1.85;;;;;;;21.39;56.62;96720.66;10322026;28;20501;-26
2022/07/31 14:33:09;;;;;;;6.82;1.92;;;;;;;21.38;56.72;96708.78;10324830;28;20683;-26
2022/07/31 14:38:09;;;;;;;5.57;1.40;;;;;;;21.37;56.61;96707.09;10320404;28;20503;-27
2022/07/31 14:43:11;;;;;;;2.30;1.40;;;;;;;21.34;57.00;96699.50;10322799;28;20042;-26
2022/07/31 14:48:11;;;;;;;4.03;1.83;;;;;;;21.38;56.06;96693.50;10318780;28;20293;-27
2022/07/31 14:53:12;;;;;;;2.00;1.87;;;;;;;21.61;55.13;96694.06;10321221;28;20053;-26
2022/07/31 14:58:12;;;;;;;0.80;0.80;;;;;;;21.69;55.45;96688.88;10321756;28;20301;-27
2022/07/31 15:03:13;;;;;;;1.63;1.27;;;;;;;21.58;55.81;96691.56;10321047;28;20125;-26
2022/07/31 15:08:13;;;;;;;2.30;1.57;;;;;;;21.46;56.19;96684.06;10319845;28;20289;-27
2022/07/31 15:13:13;;;;;;;3.97;1.27;;;;;;;21.45;56.68;96676.44;10320997;28;20351;-26
2022/07/31 15:18:14;;;;;;;5.33;1.70;;;;;;;21.42;56.50;96682.44;10322513;28;20716;-26
2022/07/31 15:23:14;;;;;;;3.67;2.17;;;;;;;21.41;56.75;96673.06;10319101;28;20671;-26
2022/07/31 15:28:15;;;;;;;2.27;1.33;;;;;;;21.43;56.33;96684.09;10321359;28;20519;-26
2022/07/31 15:33:15;;;;;;;1.97;1.30;;;;;;;21.43;56.07;96676.47;10324466;28;20046;-26
2022/07/31 15:38:15;;;;;;;2.05;1.63;;;;;;;21.41;56.77;96675.63;10320340;28;20034;-26
2022/07/31 15:43:16;;;;;;;1.47;1.27;;;;;;;21.54;55.96;96663.56;10326330;28;20401;-26
2022/07/31 15:48:16;;;;;;;8.57;1.85;;;;;;;21.71;55.05;96659.97;10327520;28;20347;-27
2022/07/31 15:53:17;;;;;;;1.07;0.87;;;;;;;21.62;55.64;96664.31;10326477;28;20042;-26
2022/07/31 15:58:17;;;;;;;2.33;1.37;;;;;;;21.50;56.16;96654.31;10330297;28;20487;-26
2022/07/31 16:03:18;;;;;;;1.48;1.20;;;;;;;21.45;56.37;96644.16;10324134;28;20623;-27
2022/07/31 16:08:18;;;;;;;4.57;1.40;;;;;;;21.48;56.46;96651.75;10324614;28;20507;-26
2022/07/31 16:13:18;;;;;;;4.63;1.47;;;;;;;21.41;57.08;96632.31;10328264;28;20318;-25
2022/07/31 16:18:19;;;;;;;2.37;1.60;;;;;;;21.41;56.76;96634.88;10320145;28;20038;-26
2022/07/31 16:23:19;;;;;;;3.28;1.70;;;;;;;21.40;56.97;96635.72;10320790;28;20080;-25
2022/07/31 16:28:20;;;;;;;1.70;1.37;;;;;;;21.38;57.06;96632.38;10323753;28;20088;-26
2022/07/31 16:33:20;;;;;;;1.30;1.10;;;;;;;21.50;56.72;96627.13;10322625;28;20301;-26
2022/07/31 16:38:20;;;;;;;2.23;1.43;;;;;;;21.71;55.50;96626.84;10320100;28;20045;-26
2022/07/31 16:43:21;;;;;;;3.03;1.00;;;;;;;21.67;56.49;96621.81;10324749;28;20052;-25
2022/07/31 16:48:21;;;;;;;3.10;1.23;;;;;;;21.52;56.37;96625.41;10319560;28;20042;-24
2022/07/31 16:53:23;;;;;;;2.80;1.30;;;;;;;21.49;56.78;96630.50;10322519;28;20285;-26
2022/07/31 16:58:23;;;;;;;6.03;1.60;;;;;;;21.44;57.14;96627.19;10324824;28;20038;-26
2022/07/31 17:03:23;;;;;;;1.33;1.20;;;;;;;21.44;56.85;96631.44;10323940;28;20416;-26
2022/07/31 17:08:24;;;;;;;1.80;1.13;;;;;;;21.43;57.01;96624.66;10318357;28;20038;-27
2022/07/31 17:13:24;;;;;;;11.20;1.20;;;;;;;21.42;57.01;96618.75;10323703;28;20030;-26
2022/07/31 17:18:25;;;;;;;5.53;1.40;;;;;;;21.44;57.06;96629.75;10321470;28;20633;-25
2022/07/31 17:23:25;;;;;;;4.40;1.50;;;;;;;21.51;56.60;96623.72;10312177;28;20169;-26
2022/07/31 17:28:26;;;;;;;5.70;1.92;;;;;;;21.71;56.16;96631.94;10315805;28;20027;-26
2022/07/31 17:33:26;;;;;;;1.23;0.90;;;;;;;21.66;56.34;96615.88;10320440;28;20496;-26
2022/07/31 17:38:27;;;;;;;1.08;0.95;;;;;;;21.55;56.70;96627.06;10317522;28;20520;-26
2022/07/31 17:43:29;;;;;;;2.30;1.00;;;;;;;21.47;57.17;96637.34;10325989;28;20030;-24
2022/07/31 17:48:30;;;;;;;3.30;1.30;;;;;;;21.37;57.26;96617.94;10324033;28;20561;-27
2022/07/31 17:53:30;;;;;;;1.77;1.03;;;;;;;21.39;57.40;96634.06;10318428;28;20489;-27
2022/07/31 17:58:31;;;;;;;1.77;0.90;;;;;;;21.38;57.50;96636.63;10320515;28;20306;-27
2022/07/31 18:03:31;;;;;;;1.92;1.00;;;;;;;21.38;57.45;96637.47;10325593;28;20035;-26
2022/07/31 18:08:31;;;;;;;8.27;1.60;;;;;;;21.37;57.66;96635.78;10321731;28;20049;-26
2022/07/31 18:13:34;;;;;;;1.20;0.93;;;;;;;21.51;57.09;96641.56;10325262;28;20488;-26
2022/07/31 18:18:34;;;;;;;1.60;1.15;;;;;;;21.70;56.40;96639.59;10317333;28;20513;-26
2022/07/31 18:23:35;;;;;;;1.37;0.60;;;;;;;21.63;56.61;96638.81;10321880;28;20124;-26
2022/07/31 18:28:36;;;;;;;0.97;0.87;;;;;;;21.53;56.78;96647.47;10322698;28;20026;-26
2022/07/31 18:33:41;;;;;;;2.28;1.30;;;;;;;21.44;57.33;96647.59;10322430;28;20045;-25
2022/07/31 18:38:41;;;;;;;2.80;1.08;;;;;;;21.43;57.54;96650.13;10319781;28;20478;-26
2022/07/31 18:43:41;;;;;;;1.07;0.97;;;;;;;21.34;57.53;96640.94;10324198;28;20042;-26
2022/07/31 18:48:42;;;;;;;4.07;1.43;;;;;;;21.41;57.61;96646.78;10319801;28;20035;-26
2022/07/31 18:53:42;;;;;;;5.77;1.10;;;;;;;21.34;57.94;96663.84;10321254;28;20049;-27
2022/07/31 18:58:43;;;;;;;1.67;1.30;;;;;;;21.39;57.62;96649.34;10322954;28;20133;-26
2022/07/31 19:03:43;;;;;;;2.72;1.40;;;;;;;21.57;57.59;96648.25;10321743;28;20105;-26
2022/07/31 19:08:44;;;;;;;3.80;1.17;;;;;;;21.74;56.81;96662.47;10314838;28;20034;-25
2022/07/31 19:13:45;;;;;;;1.30;0.98;;;;;;;21.61;57.14;96667.72;10323572;28;20042;-27
2022/07/31 19:18:46;;;;;;;2.33;0.90;;;;;;;21.43;57.49;96656.09;10320859;28;20050;-26
2022/07/31 19:23:47;;;;;;;1.73;1.13;;;;;;;21.43;57.49;96676.47;10318153;28;20041;-27
2022/07/31 19:28:48;;;;;;;1.15;0.90;;;;;;;21.40;57.67;96681.56;10318049;28;20072;-26
2022/07/31 19:33:48;;;;;;;1.43;1.30;;;;;;;21.41;57.71;96682.44;10323593;28;20046;-27
2022/07/31 19:38:49;;;;;;;1.70;1.07;;;;;;;21.37;57.88;96684.19;10321954;28;20707;-27
2022/07/31 19:43:49;;;;;;;2.40;1.10;;;;;;;21.35;57.93;96691.00;10321345;28;20310;-26
2022/07/31 19:48:49;;;;;;;3.10;0.80;;;;;;;21.35;58.02;96693.53;10325855;28;20038;-26
2022/07/31 19:53:50;;;;;;;1.13;0.97;;;;;;;21.57;57.54;96705.13;10323428;28;20042;-27
2022/07/31 19:58:50;;;;;;;3.40;1.27;;;;;;;21.64;57.39;96695.75;10325446;28;20286;-26
2022/07/31 20:03:51;;;;;;;3.57;1.93;;;;;;;21.71;57.34;96723.69;10322198;28;20691;-26
2022/07/31 20:08:52;;;;;;;1.17;0.93;;;;;;;21.56;57.63;96739.13;10320252;28;20476;-26
2022/07/31 20:13:52;;;;;;;2.93;1.10;;;;;;;21.49;57.62;96742.59;10325375;28;20052;-25
2022/07/31 20:18:53;;;;;;;3.13;1.00;;;;;;;21.48;57.64;96750.28;10323687;28;20038;-26
2022/07/31 20:23:55;;;;;;;3.50;0.90;;;;;;;21.48;57.59;96756.22;10320680;28;20034;-26
2022/07/31 20:28:55;;;;;;;4.40;1.45;;;;;;;21.44;57.66;96754.56;10318495;28;20464;-26
2022/07/31 20:33:56;;;;;;;1.90;1.20;;;;;;;21.46;57.75;96757.94;10324645;28;20031;-24
2022/07/31 20:38:57;;;;;;;3.33;1.30;;;;;;;21.45;57.62;96766.44;10320788;28;20803;-26
2022/07/31 20:43:58;;;;;;;2.28;1.58;;;;;;;21.50;57.97;96772.34;10324183;28;20049;-26
2022/07/31 20:48:59;;;;;;;1.63;1.20;;;;;;;21.72;57.47;96766.16;10317606;28;20034;-26
2022/07/31 20:53:59;;;;;;;0.70;0.60;;;;;;;21.80;56.92;96774.56;10321932;28;20034;-26
2022/07/31 20:59:00;;;;;;;0.87;0.83;;;;;;;21.56;57.35;96767.16;10321909;28;20037;-25
2022/07/31 21:04:00;;;;;;;1.60;1.00;;;;;;;21.55;57.61;96782.47;10324047;28;20272;-28
2022/07/31 21:09:01;;;;;;;2.17;0.90;;;;;;;21.50;57.15;96786.78;10319962;28;20034;-28
2022/07/31 21:14:01;;;;;;;1.87;1.00;;;;;;;21.44;57.82;96785.13;10325196;28;20472;-27
2022/07/31 21:19:02;;;;;;;1.13;0.77;;;;;;;21.44;57.70;96785.13;10331444;28;20298;-26
2022/07/31 21:24:02;;;;;;;1.30;0.93;;;;;;;21.44;57.73;96785.13;10327116;28;20435;-26
2022/07/31 21:29:04;;;;;;;1.88;1.00;;;;;;;21.44;57.66;96786.81;10331433;28;20026;-25
2022/07/31 21:34:05;;;;;;;1.20;1.00;;;;;;;21.43;57.66;96791.09;10324515;28;20034;-25
2022/07/31 21:39:05;;;;;;;1.02;1.00;;;;;;;21.65;57.57;96791.75;10328384;28;20031;-26
2022/07/31 21:44:08;;;;;;;1.48;0.93;;;;;;;21.80;57.02;96804.31;10330844;28;20048;-26
2022/07/31 21:49:11;;;;;;;0.60;0.60;;;;;;;21.69;57.28;96806.97;10325505;28;20026;-26
2022/07/31 21:54:14;;;;;;;0.90;0.90;;;;;;;21.59;57.46;96815.56;10327410;28;20034;-26
2022/07/31 21:59:14;;;;;;;2.17;1.20;;;;;;;21.54;57.87;96814.75;10326388;28;20409;-25
2022/07/31 22:04:15;;;;;;;1.47;1.00;;;;;;;21.52;57.56;96824.13;10329574;28;20046;-26
2022/07/31 22:09:17;;;;;;;1.77;1.35;;;;;;;21.49;57.45;96816.47;10321768;28;20034;-26
2022/07/31 22:14:18;;;;;;;1.27;0.95;;;;;;;21.49;57.14;96826.66;10325975;28;20034;-26
2022/07/31 22:19:19;;;;;;;1.20;0.82;;;;;;;21.48;57.66;96827.53;10322981;28;20035;-25
2022/07/31 22:24:19;;;;;;;1.42;0.80;;;;;;;21.47;57.76;96823.31;10325881;28;20038;-26
2022/07/31 22:29:20;;;;;;;0.80;0.80;;;;;;;21.61;56.87;96830.81;10327008;28;20034;-26
2022/07/31 22:34:20;;;;;;;1.53;1.20;;;;;;;21.78;56.12;96836.59;10326520;28;20034;-26
2022/07/31 22:39:21;;;;;;;1.43;0.70;;;;;;;21.76;56.60;96835.78;10324380;28;20045;-26
2022/07/31 22:44:21;;;;;;;2.42;0.90;;;;;;;21.61;56.86;96829.09;10327368;28;20309;-26
2022/07/31 22:49:22;;;;;;;1.33;0.93;;;;;;;21.55;57.00;96829.16;10328373;28;20129;-25
2022/07/31 22:54:22;;;;;;;1.20;0.93;;;;;;;21.54;57.17;96835.13;10325787;28;20054;-26
2022/07/31 22:59:22;;;;;;;1.20;1.10;;;;;;;21.52;57.25;96833.44;10323476;28;20057;-26
2022/07/31 23:04:23;;;;;;;1.03;0.97;;;;;;;21.48;57.17;96826.72;10327540;28;20035;-25
2022/07/31 23:09:23;;;;;;;0.70;0.70;;;;;;;21.47;57.25;96838.59;10323593;28;20412;-25
2022/07/31 23:14:24;;;;;;;2.07;1.00;;;;;;;21.47;57.42;96840.31;10325811;28;20053;-26
2022/07/31 23:19:25;;;;;;;3.83;1.20;;;;;;;21.55;55.50;96847.00;10327444;28;20034;-26
2022/07/31 23:24:25;;;;;;;3.55;1.08;;;;;;;21.73;54.65;96849.38;10325962;28;20109;-25
2022/07/31 23:29:25;;;;;;;2.00;0.97;;;;;;;21.80;55.34;96851.00;10329375;28;20078;-25
2022/07/31 23:34:26;;;;;;;0.80;0.70;;;;;;;21.66;55.78;96841.84;10329647;28;20074;-25